Time;durP1;ratioP1;P1;durP2;ratioP2;P2;SDS_P1;SDS_P2;PMS_P1;PMS_P2;Temp;Humidity;BMP_temperature;BMP_pressure;BME280_temperature;BME280_humidity;BME280_pressure;Samples;Min_cycle;Max_cycle;Signal;HPM_P1;HPM_P2
2023/06/20 00:01:48;;;;;;;20.87;18.67;;;19.40;99.90;;;;;;5038574;28;20461;-77
2023/06/20 00:04:14;;;;;;;19.80;17.23;;;19.40;99.90;;;;;;5044201;28;20471;-77
2023/06/20 00:06:41;;;;;;;24.20;19.07;;;19.30;99.90;;;;;;5035330;28;20535;-76
2023/06/20 00:09:08;;;;;;;21.90;19.67;;;19.30;99.90;;;;;;5024961;28;20443;-76
2023/06/20 00:11:35;;;;;;;23.07;20.63;;;19.30;99.90;;;;;;5035587;28;20443;-77
2023/06/20 00:14:02;;;;;;;29.67;21.00;;;19.20;99.90;;;;;;5042488;28;20524;-77
2023/06/20 00:16:30;;;;;;;27.03;21.73;;;19.20;99.90;;;;;;5036033;28;20526;-75
2023/06/20 00:18:57;;;;;;;24.93;22.53;;;19.10;99.90;;;;;;5045741;28;20530;-77
2023/06/20 00:21:25;;;;;;;20.60;18.50;;;19.10;99.90;;;;;;5037399;28;20561;-76
2023/06/20 00:23:52;;;;;;;28.83;22.97;;;19.10;99.90;;;;;;5044516;28;21010;-76
2023/06/20 00:26:21;;;;;;;22.93;20.57;;;19.10;99.90;;;;;;5042238;28;20804;-78
2023/06/20 00:28:48;;;;;;;22.00;19.80;;;19.10;99.90;;;;;;5040665;28;20935;-77
2023/06/20 00:31:14;;;;;;;25.03;20.43;;;19.00;99.90;;;;;;5033030;28;20542;-77
2023/06/20 00:33:43;;;;;;;23.37;20.90;;;19.00;99.90;;;;;;5031197;28;20469;-77
2023/06/20 00:36:25;;;;;;;22.43;19.73;;;19.00;99.90;;;;;;5032953;28;20494;-76
2023/06/20 00:38:52;;;;;;;21.27;18.97;;;18.90;99.90;;;;;;5027327;28;20442;-76
2023/06/20 00:41:31;;;;;;;21.17;17.40;;;18.90;99.90;;;;;;5044607;28;20466;-75
2023/06/20 00:44:02;;;;;;;21.33;19.13;;;18.90;99.90;;;;;;5048107;28;20461;-75
2023/06/20 00:46:39;;;;;;;19.70;17.60;;;18.90;99.90;;;;;;5063949;28;20502;-75
2023/06/20 00:49:10;;;;;;;19.40;17.40;;;18.90;99.90;;;;;;5050322;28;20795;-76
2023/06/20 00:51:38;;;;;;;21.23;16.83;;;19.00;99.90;;;;;;5016126;28;20448;-75
2023/06/20 00:54:05;;;;;;;25.23;19.27;;;18.90;99.90;;;;;;5034227;28;20912;-75
2023/06/20 00:56:33;;;;;;;23.00;19.10;;;18.90;99.90;;;;;;5045341;28;20442;-75
2023/06/20 00:59:01;;;;;;;23.73;17.20;;;18.90;99.90;;;;;;5046631;28;20486;-76
2023/06/20 01:01:31;;;;;;;20.07;18.07;;;18.80;99.90;;;;;;5042999;28;20490;-74
2023/06/20 01:04:00;;;;;;;21.80;17.60;;;18.90;99.90;;;;;;5038010;28;20819;-76
2023/06/20 01:06:41;;;;;;;21.40;19.00;;;18.90;99.90;;;;;;5042523;28;20952;-75
2023/06/20 01:09:15;;;;;;;21.40;17.50;;;18.90;99.90;;;;;;5033826;28;20533;-76
2023/06/20 01:11:52;;;;;;;23.40;21.00;;;18.80;99.90;;;;;;5025383;28;20447;-75
2023/06/20 01:14:26;;;;;;;21.83;19.47;;;18.70;99.90;;;;;;5013804;28;20503;-75
2023/06/20 01:16:58;;;;;;;18.90;16.90;;;18.70;99.90;;;;;;5021340;28;20460;-75
2023/06/20 01:19:48;;;;;;;19.33;17.33;;;18.70;99.90;;;;;;5037607;28;20533;-76
2023/06/20 01:22:42;;;;;;;20.17;16.73;;;18.70;99.90;;;;;;5032605;28;20517;-76
2023/06/20 01:25:12;;;;;;;21.27;17.40;;;18.70;99.90;;;;;;5031208;28;20442;-76
2023/06/20 01:27:44;;;;;;;19.63;17.63;;;18.70;99.90;;;;;;5034753;28;20575;-77
2023/06/20 01:30:17;;;;;;;19.00;16.40;;;18.70;99.90;;;;;;5031762;28;20545;-77
2023/06/20 01:32:47;;;;;;;17.57;15.77;;;18.70;99.90;;;;;;5025312;28;20462;-77
2023/06/20 01:35:17;;;;;;;19.27;16.43;;;18.70;99.90;;;;;;5041416;28;20437;-76
2023/06/20 01:37:48;;;;;;;19.70;17.67;;;18.70;99.90;;;;;;5031533;28;20442;-77
2023/06/20 01:40:21;;;;;;;21.13;17.87;;;18.70;99.90;;;;;;5038021;28;20521;-75
2023/06/20 01:42:49;;;;;;;17.90;16.20;;;18.70;99.90;;;;;;5028058;28;20496;-76
2023/06/20 01:45:17;;;;;;;20.50;18.40;;;18.70;99.90;;;;;;5047343;28;20474;-77
2023/06/20 01:47:45;;;;;;;20.87;18.80;;;18.70;99.90;;;;;;5036789;28;20798;-75
2023/06/20 01:50:16;;;;;;;20.30;18.20;;;18.70;99.90;;;;;;5045198;28;20814;-77
2023/06/20 01:52:45;;;;;;;19.77;17.70;;;18.70;99.90;;;;;;5028494;28;20502;-77
2023/06/20 01:55:13;;;;;;;20.67;18.50;;;18.70;99.90;;;;;;5040564;28;20448;-76
2023/06/20 01:57:42;;;;;;;21.47;18.20;;;18.70;99.90;;;;;;5035326;28;21022;-76
2023/06/20 02:00:12;;;;;;;19.27;17.37;;;18.60;99.90;;;;;;5033037;28;20442;-76
2023/06/20 02:02:40;;;;;;;21.00;18.73;;;18.60;99.90;;;;;;5034954;28;20495;-76
2023/06/20 02:05:09;;;;;;;24.10;21.53;;;18.60;99.90;;;;;;5046171;28;20518;-77
2023/06/20 02:07:38;;;;;;;20.40;18.30;;;18.50;99.90;;;;;;5040736;28;20474;-76
2023/06/20 02:10:07;;;;;;;26.43;19.40;;;18.50;99.90;;;;;;5028821;28;20446;-76
2023/06/20 02:12:36;;;;;;;24.37;20.20;;;18.50;99.90;;;;;;5030809;28;20557;-77
2023/06/20 02:15:04;;;;;;;27.10;21.87;;;18.50;99.90;;;;;;5036398;28;20460;-76
2023/06/20 02:17:32;;;;;;;21.40;19.17;;;18.50;99.90;;;;;;5037904;28;20522;-77
2023/06/20 02:19:59;;;;;;;25.23;20.50;;;18.50;99.90;;;;;;5041968;28;20446;-78
2023/06/20 02:22:28;;;;;;;26.77;22.20;;;18.50;99.90;;;;;;5036376;28;20840;-78
2023/06/20 02:25:00;;;;;;;25.10;21.13;;;18.40;99.90;;;;;;5039296;28;20818;-78
2023/06/20 02:27:28;;;;;;;23.77;21.27;;;18.40;99.90;;;;;;5038529;28;20471;-77
2023/06/20 02:29:59;;;;;;;25.83;23.27;;;18.40;99.90;;;;;;5038633;28;20529;-77
2023/06/20 02:32:27;;;;;;;26.03;21.00;;;18.40;99.90;;;;;;5029805;28;20475;-77
2023/06/20 02:34:56;;;;;;;22.93;20.57;;;18.40;99.90;;;;;;5030032;28;20488;-76
2023/06/20 02:37:27;;;;;;;23.37;21.07;;;18.40;99.90;;;;;;5038061;28;20439;-77
2023/06/20 02:39:55;;;;;;;23.87;20.63;;;18.30;99.90;;;;;;5038017;28;20454;-75
2023/06/20 02:42:22;;;;;;;26.87;22.30;;;18.40;99.90;;;;;;5033396;28;20872;-76
2023/06/20 02:44:51;;;;;;;20.33;18.20;;;18.30;99.90;;;;;;5056311;28;20442;-75
2023/06/20 02:47:33;;;;;;;24.60;20.50;;;18.30;99.90;;;;;;5042067;28;20447;-76
2023/06/20 02:50:06;;;;;;;22.37;19.90;;;18.30;99.90;;;;;;5034375;28;20927;-75
2023/06/20 02:52:40;;;;;;;23.83;20.50;;;18.30;99.90;;;;;;5035068;28;20476;-76
2023/06/20 02:55:13;;;;;;;24.20;20.53;;;18.20;99.90;;;;;;5037397;28;20451;-76
2023/06/20 02:57:45;;;;;;;23.30;20.00;;;18.30;99.90;;;;;;5036533;28;20450;-77
2023/06/20 03:00:17;;;;;;;20.80;18.60;;;18.30;99.90;;;;;;5035564;28;20490;-76
2023/06/20 03:02:50;;;;;;;24.80;21.53;;;18.30;99.90;;;;;;5040940;28;20494;-76
2023/06/20 03:05:19;;;;;;;24.30;20.63;;;18.20;99.90;;;;;;5037062;28;20819;-76
2023/06/20 03:07:47;;;;;;;24.20;21.70;;;18.30;99.90;;;;;;5039690;28;20454;-76
2023/06/20 03:10:14;;;;;;;22.40;19.93;;;18.30;99.90;;;;;;5041045;28;20451;-76
2023/06/20 03:12:42;;;;;;;22.80;20.50;;;18.40;99.90;;;;;;5035650;28;20517;-76
2023/06/20 03:15:09;;;;;;;29.70;22.27;;;18.30;99.90;;;;;;5036667;28;20471;-78
2023/06/20 03:17:39;;;;;;;23.07;20.30;;;18.40;99.90;;;;;;5036253;28;20514;-78
2023/06/20 03:20:09;;;;;;;20.07;18.13;;;18.40;99.90;;;;;;5037913;28;20434;-76
2023/06/20 03:22:36;;;;;;;21.80;19.70;;;18.40;99.90;;;;;;5032355;28;20488;-77
2023/06/20 03:25:04;;;;;;;21.90;19.87;;;18.40;99.90;;;;;;5032383;28;20544;-76
2023/06/20 03:27:31;;;;;;;23.43;20.93;;;18.40;99.90;;;;;;5043499;28;20442;-78
2023/06/20 03:29:59;;;;;;;23.20;20.80;;;18.50;99.90;;;;;;5035707;28;20977;-78
2023/06/20 03:32:27;;;;;;;20.43;18.23;;;18.50;99.90;;;;;;5039462;28;20458;-79
2023/06/20 03:34:56;;;;;;;20.97;18.87;;;18.60;99.90;;;;;;5030058;28;20451;-77
2023/06/20 03:37:23;;;;;;;21.13;19.03;;;18.70;99.90;;;;;;5036509;28;20483;-77
2023/06/20 03:39:50;;;;;;;23.13;20.70;;;18.80;99.90;;;;;;5037375;28;20512;-77
2023/06/20 03:42:17;;;;;;;23.00;20.80;;;18.90;99.90;;;;;;5040686;28;20474;-78
2023/06/20 03:44:44;;;;;;;21.50;19.20;;;18.90;99.90;;;;;;5042326;28;20438;-76
2023/06/20 03:47:11;;;;;;;23.53;21.13;;;19.00;99.90;;;;;;5039250;28;20443;-76
2023/06/20 03:49:38;;;;;;;21.17;18.97;;;19.00;99.90;;;;;;5028317;28;20790;-77
2023/06/20 03:52:07;;;;;;;19.33;17.43;;;19.10;99.90;;;;;;5039789;28;20803;-78
2023/06/20 03:54:37;;;;;;;20.53;18.30;;;19.10;99.90;;;;;;5040207;28;20446;-77
2023/06/20 03:57:04;;;;;;;18.47;16.50;;;19.20;99.90;;;;;;5036654;28;20817;-77
2023/06/20 03:59:31;;;;;;;23.20;20.33;;;19.40;99.90;;;;;;5040412;28;20448;-77
2023/06/20 04:01:58;;;;;;;22.60;20.17;;;19.50;99.90;;;;;;5039725;28;20438;-76
2023/06/20 04:04:29;;;;;;;20.10;18.20;;;19.70;99.90;;;;;;5042894;28;20457;-76
2023/06/20 04:06:56;;;;;;;18.97;16.93;;;20.00;99.90;;;;;;5033755;28;20938;-77
2023/06/20 04:09:26;;;;;;;22.47;18.77;;;20.40;99.90;;;;;;5039834;28;20448;-77
2023/06/20 04:11:53;;;;;;;20.47;18.27;;;20.50;99.90;;;;;;5036320;28;20452;-76
2023/06/20 04:14:20;;;;;;;19.13;16.00;;;20.70;99.90;;;;;;5036052;28;20466;-75
2023/06/20 04:16:49;;;;;;;19.43;17.43;;;21.20;99.90;;;;;;5038553;28;20485;-76
2023/06/20 04:19:17;;;;;;;19.83;17.90;;;21.40;99.90;;;;;;5037584;28;20988;-75
2023/06/20 04:21:44;;;;;;;18.50;16.63;;;21.50;99.90;;;;;;5039234;28;20879;-75
2023/06/20 04:24:12;;;;;;;20.03;16.67;;;21.40;99.90;;;;;;5036766;28;20515;-76
2023/06/20 04:26:40;;;;;;;19.20;17.30;;;21.50;99.90;;;;;;5034328;28;20454;-76
2023/06/20 04:29:07;;;;;;;19.70;17.60;;;21.60;99.90;;;;;;5038990;28;20447;-75
2023/06/20 04:31:34;;;;;;;20.20;16.80;;;21.70;99.90;;;;;;5040944;28;20917;-76
2023/06/20 04:34:01;;;;;;;20.07;18.07;;;21.90;99.90;;;;;;5038183;28;20522;-75
2023/06/20 04:36:29;;;;;;;28.57;19.57;;;21.80;99.90;;;;;;5040340;28;20446;-75
2023/06/20 04:38:59;;;;;;;20.10;17.57;;;21.80;99.90;;;;;;5038201;28;20450;-75
2023/06/20 04:41:26;;;;;;;18.57;16.87;;;21.60;99.90;;;;;;5036724;28;20444;-77
2023/06/20 04:44:00;;;;;;;20.10;18.00;;;21.50;99.90;;;;;;5043500;28;20481;-77
2023/06/20 04:46:27;;;;;;;19.20;17.27;;;21.40;99.90;;;;;;5031379;28;20941;-77
2023/06/20 04:48:54;;;;;;;18.13;16.23;;;21.40;99.90;;;;;;5038976;28;20481;-76
2023/06/20 04:51:21;;;;;;;20.53;17.70;;;21.40;99.90;;;;;;5041763;28;20449;-76
2023/06/20 04:53:49;;;;;;;23.60;16.80;;;21.50;99.90;;;;;;5039281;28;20469;-76
2023/06/20 04:56:16;;;;;;;20.30;18.00;;;21.40;99.90;;;;;;5038186;28;20497;-76
2023/06/20 04:58:45;;;;;;;17.97;16.27;;;21.50;99.90;;;;;;5042014;28;20465;-77
2023/06/20 05:01:14;;;;;;;17.93;16.23;;;21.50;99.90;;;;;;5036848;28;20449;-75
2023/06/20 05:03:41;;;;;;;19.77;17.00;;;21.60;99.90;;;;;;5040974;28;20979;-75
2023/06/20 05:06:17;;;;;;;18.57;16.60;;;21.60;99.90;;;;;;5032212;28;20540;-75
2023/06/20 05:08:44;;;;;;;21.03;17.30;;;21.50;99.90;;;;;;5037605;28;20464;-76
2023/06/20 05:11:11;;;;;;;18.57;16.10;;;21.50;99.90;;;;;;5037819;28;20481;-75
2023/06/20 05:13:38;;;;;;;18.93;17.03;;;21.60;99.90;;;;;;5039438;28;20466;-75
2023/06/20 05:16:05;;;;;;;19.47;16.93;;;21.60;99.90;;;;;;5043179;28;20804;-75
2023/06/20 05:18:34;;;;;;;17.73;15.87;;;21.70;99.90;;;;;;5035319;28;20522;-75
2023/06/20 05:21:01;;;;;;;17.57;15.87;;;21.80;99.90;;;;;;5034191;28;20453;-76
2023/06/20 05:23:28;;;;;;;17.60;15.07;;;22.20;99.90;;;;;;5040173;28;20556;-76
2023/06/20 05:25:55;;;;;;;18.30;16.40;;;22.40;99.90;;;;;;5036432;28;20964;-76
2023/06/20 05:28:22;;;;;;;18.20;16.40;;;22.30;99.90;;;;;;5039735;28;20533;-76
2023/06/20 05:30:49;;;;;;;19.30;17.50;;;22.10;99.90;;;;;;5039453;28;20439;-76
2023/06/20 05:33:16;;;;;;;19.30;17.13;;;22.00;99.90;;;;;;5032175;28;20547;-76
2023/06/20 05:35:46;;;;;;;17.07;15.20;;;22.10;99.90;;;;;;5030347;28;20527;-76
2023/06/20 05:38:15;;;;;;;16.83;15.10;;;22.10;99.90;;;;;;5040558;28;20455;-77
2023/06/20 05:40:42;;;;;;;16.43;14.70;;;22.30;99.90;;;;;;5032583;28;20439;-78
2023/06/20 05:43:09;;;;;;;18.63;16.47;;;22.40;99.90;;;;;;5034244;28;20496;-77
2023/06/20 05:45:36;;;;;;;18.63;16.30;;;22.50;99.90;;;;;;5039167;28;20477;-76
2023/06/20 05:48:03;;;;;;;19.03;16.40;;;22.60;99.90;;;;;;5034651;28;20522;-76
2023/06/20 05:50:32;;;;;;;16.27;14.50;;;22.70;99.90;;;;;;5043298;28;20526;-74
2023/06/20 05:53:01;;;;;;;20.03;15.70;;;22.70;99.90;;;;;;5040816;28;20479;-75
2023/06/20 05:55:28;;;;;;;16.50;14.90;;;22.90;99.90;;;;;;5039990;28;20435;-76
2023/06/20 05:57:54;;;;;;;18.90;15.70;;;23.10;99.90;;;;;;5038111;28;20458;-75
2023/06/20 06:00:22;;;;;;;15.43;14.00;;;23.60;99.90;;;;;;5036965;28;20773;-74
2023/06/20 06:02:49;;;;;;;14.27;12.83;;;24.10;99.90;;;;;;5038316;28;20579;-74
2023/06/20 06:05:16;;;;;;;14.90;13.33;;;24.40;99.90;;;;;;5038152;28;20873;-75
2023/06/20 06:07:43;;;;;;;15.40;13.90;;;25.00;99.90;;;;;;5034704;28;20504;-76
2023/06/20 06:10:11;;;;;;;15.60;14.03;;;25.70;99.90;;;;;;5027524;28;20526;-76
2023/06/20 06:12:40;;;;;;;15.00;13.50;;;26.00;99.90;;;;;;5036569;28;20939;-76
2023/06/20 06:15:08;;;;;;;15.87;13.70;;;26.40;99.90;;;;;;5028825;28;20529;-75
2023/06/20 06:17:35;;;;;;;14.97;13.57;;;27.10;99.50;;;;;;5044326;28;20447;-77
2023/06/20 06:20:04;;;;;;;14.47;13.07;;;27.40;97.70;;;;;;5033072;28;20461;-77
2023/06/20 06:22:32;;;;;;;16.10;13.73;;;27.50;96.90;;;;;;5043407;28;20465;-76
2023/06/20 06:24:59;;;;;;;14.43;12.93;;;28.00;96.10;;;;;;5033862;28;20945;-76
2023/06/20 06:27:27;;;;;;;15.33;12.97;;;28.70;94.60;;;;;;5040710;28;20463;-77
2023/06/20 06:29:54;;;;;;;18.70;13.43;;;29.70;92.20;;;;;;5032869;28;20899;-76
2023/06/20 06:32:22;;;;;;;14.70;13.20;;;30.20;90.40;;;;;;5041614;28;20971;-73
2023/06/20 06:34:50;;;;;;;13.50;12.03;;;30.30;89.20;;;;;;5034760;28;20435;-75
2023/06/20 06:37:17;;;;;;;15.53;12.67;;;30.50;88.80;;;;;;5038796;28;20523;-74
2023/06/20 06:39:44;;;;;;;13.60;12.30;;;30.20;88.10;;;;;;5033848;28;20474;-76
2023/06/20 06:42:12;;;;;;;12.70;11.40;;;29.70;89.40;;;;;;5047388;28;20448;-76
2023/06/20 06:44:41;;;;;;;12.83;11.50;;;29.60;89.50;;;;;;5042399;28;20538;-73
2023/06/20 06:47:08;;;;;;;13.87;12.53;;;29.50;90.00;;;;;;5030748;28;21068;-75
2023/06/20 06:49:35;;;;;;;12.07;10.87;;;29.90;89.40;;;;;;5029927;28;20446;-72
2023/06/20 06:52:02;;;;;;;12.40;11.23;;;30.20;88.30;;;;;;5033138;28;20452;-74
2023/06/20 06:54:29;;;;;;;13.90;12.60;;;30.10;88.50;;;;;;5042106;28;20445;-74
2023/06/20 06:56:56;;;;;;;13.20;12.00;;;30.30;88.40;;;;;;5039320;28;20829;-75
2023/06/20 06:59:23;;;;;;;12.33;11.20;;;30.70;86.80;;;;;;5034641;28;20451;-75
2023/06/20 07:01:51;;;;;;;11.70;10.50;;;31.20;85.50;;;;;;5030754;28;20810;-75
2023/06/20 07:04:18;;;;;;;12.80;11.80;;;31.10;85.30;;;;;;5030700;28;20851;-75
2023/06/20 07:06:45;;;;;;;13.57;12.27;;;30.50;85.80;;;;;;5037397;28;20447;-75
2023/06/20 07:09:12;;;;;;;13.23;11.93;;;29.90;87.50;;;;;;5037420;28;20542;-75
2023/06/20 07:11:39;;;;;;;11.97;10.73;;;29.20;89.20;;;;;;5029928;28;20451;-75
2023/06/20 07:14:06;;;;;;;13.57;12.20;;;28.90;90.50;;;;;;5036164;28;20465;-75
2023/06/20 07:16:33;;;;;;;12.23;11.13;;;28.60;90.90;;;;;;5039572;28;20462;-74
2023/06/20 07:19:01;;;;;;;11.00;10.10;;;28.30;91.60;;;;;;5031519;28;20436;-74
2023/06/20 07:21:28;;;;;;;13.90;10.70;;;28.30;91.80;;;;;;5041082;28;20478;-75
2023/06/20 07:23:55;;;;;;;14.10;10.10;;;28.50;91.40;;;;;;5040953;28;20813;-75
2023/06/20 07:26:22;;;;;;;13.03;10.27;;;28.20;91.90;;;;;;5036739;28;20538;-74
2023/06/20 07:28:48;;;;;;;15.47;12.47;;;28.10;92.30;;;;;;5040870;28;20455;-75
2023/06/20 07:31:19;;;;;;;13.80;12.40;;;27.60;92.70;;;;;;5032928;28;20792;-74
2023/06/20 07:33:46;;;;;;;21.43;12.23;;;27.70;93.20;;;;;;5038418;28;20467;-74
2023/06/20 07:36:15;;;;;;;11.33;10.23;;;27.90;93.20;;;;;;5043280;28;20811;-74
2023/06/20 07:38:42;;;;;;;16.30;10.30;;;27.70;93.50;;;;;;5035262;28;20446;-75
2023/06/20 07:41:09;;;;;;;16.10;12.43;;;27.50;94.10;;;;;;5030769;28;20447;-75
2023/06/20 07:43:36;;;;;;;12.67;11.47;;;27.20;94.50;;;;;;5031853;28;20479;-74
2023/06/20 07:46:04;;;;;;;13.60;11.57;;;26.90;95.30;;;;;;5030672;28;20530;-75
2023/06/20 07:48:30;;;;;;;15.10;13.80;;;26.70;96.20;;;;;;5041524;28;20499;-74
2023/06/20 07:50:58;;;;;;;15.13;12.80;;;26.20;97.30;;;;;;5035243;28;20464;-75
2023/06/20 07:53:26;;;;;;;18.27;13.40;;;26.00;98.20;;;;;;5036228;28;20466;-75
2023/06/20 07:55:54;;;;;;;15.27;13.13;;;25.60;99.40;;;;;;5024812;28;21011;-75
2023/06/20 07:58:21;;;;;;;13.70;12.50;;;25.50;99.90;;;;;;5033917;28;20454;-74
2023/06/20 08:00:47;;;;;;;16.10;12.53;;;25.40;99.90;;;;;;5030724;28;20460;-74
2023/06/20 08:03:15;;;;;;;14.97;13.47;;;25.20;99.90;;;;;;5040820;28;20473;-75
2023/06/20 08:05:41;;;;;;;17.70;15.90;;;24.70;99.90;;;;;;5033487;28;20443;-75
2023/06/20 08:08:08;;;;;;;17.80;16.00;;;24.40;99.90;;;;;;5035655;28;20934;-74
2023/06/20 08:10:37;;;;;;;17.30;15.37;;;24.20;99.90;;;;;;5033564;28;20459;-77
2023/06/20 08:13:03;;;;;;;18.00;16.20;;;23.90;99.90;;;;;;5034250;28;20523;-77
2023/06/20 08:15:30;;;;;;;19.17;17.07;;;23.90;99.90;;;;;;5030293;28;20434;-76
2023/06/20 08:17:57;;;;;;;21.73;16.37;;;23.90;99.90;;;;;;5032569;28;20517;-77
2023/06/20 08:20:24;;;;;;;18.43;16.60;;;23.80;99.90;;;;;;5034540;28;20428;-79
2023/06/20 08:22:51;;;;;;;19.03;17.07;;;24.00;99.90;;;;;;5051616;28;20489;-81
2023/06/20 08:25:18;;;;;;;20.50;18.37;;;24.00;99.90;;;;;;5032349;28;20475;-81
2023/06/20 08:27:48;;;;;;;21.77;18.40;;;23.90;99.90;;;;;;5035289;28;20498;-83
2023/06/20 08:30:15;;;;;;;20.90;18.70;;;23.90;99.90;;;;;;5036942;28;20446;-82
2023/06/20 08:32:44;;;;;;;21.50;19.30;;;23.60;99.90;;;;;;5042060;28;20479;-82
2023/06/20 08:35:11;;;;;;;21.67;17.87;;;23.80;99.90;;;;;;5020518;28;20448;-82
2023/06/20 08:37:38;;;;;;;19.93;18.13;;;24.00;99.90;;;;;;5041611;28;20435;-82
2023/06/20 08:40:08;;;;;;;21.63;19.47;;;24.00;99.90;;;;;;5046195;28;20497;-82
2023/06/20 08:42:36;;;;;;;19.20;17.20;;;24.00;99.90;;;;;;5031489;28;20841;-82
2023/06/20 08:45:05;;;;;;;19.47;17.77;;;24.10;99.90;;;;;;5040028;28;20491;-81
2023/06/20 08:47:32;;;;;;;19.07;17.37;;;24.10;99.90;;;;;;5044984;28;20493;-75
2023/06/20 08:49:59;;;;;;;20.40;18.60;;;24.20;99.90;;;;;;5058652;28;20524;-76
2023/06/20 08:52:30;;;;;;;18.23;16.30;;;24.10;99.90;;;;;;5038067;28;20551;-77
2023/06/20 08:55:01;;;;;;;18.67;16.87;;;24.00;99.90;;;;;;5038028;28;20529;-77
2023/06/20 08:57:27;;;;;;;19.53;17.47;;;24.00;99.90;;;;;;5035372;28;20524;-76
2023/06/20 08:59:56;;;;;;;19.40;17.50;;;23.80;99.90;;;;;;5038003;28;20452;-76
2023/06/20 09:02:24;;;;;;;18.93;17.23;;;23.70;99.90;;;;;;5045117;28;20871;-77
2023/06/20 09:05:02;;;;;;;20.40;18.50;;;23.80;99.90;;;;;;5039980;28;20482;-76
2023/06/20 09:07:36;;;;;;;20.03;18.20;;;23.90;99.90;;;;;;5031962;28;20861;-77
2023/06/20 09:10:03;;;;;;;22.30;19.27;;;24.00;99.90;;;;;;5040733;28;20874;-76
2023/06/20 09:12:46;;;;;;;20.73;18.93;;;24.10;99.90;;;;;;5041138;28;20496;-76
2023/06/20 09:15:14;;;;;;;20.00;18.00;;;24.10;99.90;;;;;;5038899;28;20440;-83
2023/06/20 09:17:43;;;;;;;19.67;17.97;;;24.30;99.90;;;;;;5038018;28;20440;-84
2023/06/20 09:20:12;;;;;;;20.20;18.23;;;24.20;99.90;;;;;;5028818;28;20458;-84
2023/06/20 09:22:40;;;;;;;21.10;18.90;;;24.40;99.90;;;;;;5037924;28;20962;-84
2023/06/20 09:25:08;;;;;;;20.40;18.50;;;24.60;99.90;;;;;;5045241;28;20469;-84
2023/06/20 09:27:36;;;;;;;21.13;18.93;;;24.70;99.90;;;;;;5045432;28;20985;-84
2023/06/20 09:30:04;;;;;;;19.90;18.20;;;24.80;99.90;;;;;;5048671;28;20510;-85
2023/06/20 09:32:36;;;;;;;20.40;18.40;;;24.80;99.90;;;;;;5037086;28;20468;-84
2023/06/20 09:35:06;;;;;;;21.77;19.47;;;24.80;99.90;;;;;;5030539;28;20527;-83
2023/06/20 09:37:38;;;;;;;20.47;18.57;;;24.60;99.90;;;;;;5030134;28;20459;-82
2023/06/20 09:40:10;;;;;;;18.60;16.93;;;24.70;99.90;;;;;;5028413;28;20436;-83
2023/06/20 09:42:38;;;;;;;20.43;18.30;;;24.80;99.90;;;;;;5034224;28;20517;-83
2023/06/20 09:45:06;;;;;;;20.03;18.00;;;24.90;99.90;;;;;;5028910;28;20561;-83
2023/06/20 09:47:35;;;;;;;19.70;17.90;;;24.80;99.90;;;;;;5041263;28;20473;-83
2023/06/20 09:50:07;;;;;;;18.73;16.93;;;25.00;99.90;;;;;;5032035;28;20461;-83
2023/06/20 09:52:37;;;;;;;20.33;18.30;;;25.00;99.90;;;;;;5034406;28;20501;-84
2023/06/20 09:55:09;;;;;;;19.13;17.33;;;25.10;99.90;;;;;;5023741;28;20475;-82
2023/06/20 09:57:41;;;;;;;20.13;18.30;;;25.20;99.90;;;;;;5032507;28;20604;-82
2023/06/20 10:00:14;;;;;;;18.57;17.03;;;25.50;99.90;;;;;;5027507;28;20450;-82
2023/06/20 10:02:44;;;;;;;32.67;15.80;;;25.80;99.90;;;;;;5045620;28;20478;-81
2023/06/20 10:05:14;;;;;;;16.43;14.90;;;26.00;99.90;;;;;;5042278;28;20471;-81
2023/06/20 10:07:42;;;;;;;16.83;15.13;;;26.00;99.90;;;;;;5041728;28;20446;-81
2023/06/20 10:10:10;;;;;;;16.33;15.03;;;26.10;99.90;;;;;;5033228;28;20910;-81
2023/06/20 10:12:39;;;;;;;14.10;12.80;;;26.30;99.90;;;;;;5036578;28;20498;-81
2023/06/20 10:15:08;;;;;;;12.17;11.13;;;26.50;99.90;;;;;;5047292;28;20465;-81
2023/06/20 10:17:40;;;;;;;13.70;12.40;;;26.70;99.90;;;;;;5037672;28;21030;-80
2023/06/20 10:20:09;;;;;;;13.60;12.40;;;26.80;99.70;;;;;;5032519;28;20451;-80
2023/06/20 10:22:42;;;;;;;13.80;11.90;;;27.10;98.60;;;;;;5031246;28;21006;-80
2023/06/20 10:25:14;;;;;;;13.70;12.57;;;27.10;98.30;;;;;;5027946;28;20562;-79
2023/06/20 10:27:42;;;;;;;12.30;11.10;;;27.20;98.30;;;;;;5033474;28;20444;-80
2023/06/20 10:30:12;;;;;;;12.30;11.20;;;27.10;97.70;;;;;;5045297;28;20529;-79
2023/06/20 10:33:07;;;;;;;12.30;11.10;;;26.90;98.10;;;;;;5037846;28;20473;-79
2023/06/20 10:35:34;;;;;;;13.67;12.40;;;26.90;97.80;;;;;;5038220;28;20439;-78
2023/06/20 10:38:10;;;;;;;14.40;13.10;;;26.90;98.00;;;;;;5035911;28;20455;-78
2023/06/20 10:40:37;;;;;;;13.40;12.03;;;27.00;98.10;;;;;;5035541;28;20517;-79
2023/06/20 10:43:08;;;;;;;13.27;12.07;;;27.10;97.80;;;;;;5030999;28;20458;-76
2023/06/20 10:45:36;;;;;;;13.07;11.97;;;27.30;97.30;;;;;;5035276;28;20999;-78
2023/06/20 10:48:04;;;;;;;14.93;12.67;;;27.70;97.00;;;;;;5035222;28;20451;-77
2023/06/20 10:50:31;;;;;;;13.83;12.33;;;28.00;96.20;;;;;;5041087;28;20451;-76
2023/06/20 10:53:02;;;;;;;12.10;11.10;;;28.00;95.30;;;;;;5044033;28;20502;-79
2023/06/20 10:55:30;;;;;;;10.63;9.67;;;27.80;95.40;;;;;;5039267;28;20453;-78
2023/06/20 10:57:57;;;;;;;11.30;10.30;;;27.90;95.10;;;;;;5045041;28;20498;-78
2023/06/20 11:00:25;;;;;;;11.27;9.93;;;27.70;94.90;;;;;;5053767;28;20437;-77
2023/06/20 11:02:53;;;;;;;11.30;9.60;;;27.50;95.00;;;;;;5049660;28;20496;-77
2023/06/20 11:05:26;;;;;;;11.53;10.60;;;27.50;95.10;;;;;;5039280;28;20823;-77
2023/06/20 11:07:58;;;;;;;10.60;9.60;;;27.50;95.10;;;;;;5033501;28;20541;-78
2023/06/20 11:10:31;;;;;;;11.37;10.37;;;27.50;94.90;;;;;;5037769;28;20430;-78
2023/06/20 11:13:00;;;;;;;10.70;9.70;;;27.50;95.00;;;;;;5040023;28;20982;-77
2023/06/20 11:15:29;;;;;;;12.63;9.27;;;27.30;95.20;;;;;;5025116;28;20432;-78
2023/06/20 11:17:57;;;;;;;10.47;9.57;;;27.30;95.40;;;;;;5040929;28;20448;-78
2023/06/20 11:20:25;;;;;;;12.20;11.10;;;27.40;95.20;;;;;;5035250;28;20521;-79
2023/06/20 11:22:54;;;;;;;11.67;10.77;;;27.50;95.30;;;;;;5048950;28;20466;-80
2023/06/20 11:25:23;;;;;;;11.90;10.80;;;27.70;95.40;;;;;;5036938;28;20483;-79
2023/06/20 11:27:51;;;;;;;12.53;11.33;;;27.80;95.00;;;;;;5038668;28;20456;-77
2023/06/20 11:30:25;;;;;;;12.60;11.50;;;27.90;95.20;;;;;;5028317;28;20479;-78
2023/06/20 11:33:03;;;;;;;10.40;9.50;;;28.20;94.70;;;;;;5037090;28;20506;-79
2023/06/20 11:35:51;;;;;;;12.87;11.57;;;28.50;94.40;;;;;;5032114;28;20470;-78
2023/06/20 11:38:21;;;;;;;10.40;9.47;;;28.80;93.90;;;;;;5038726;28;20473;-78
2023/06/20 11:40:59;;;;;;;13.60;10.67;;;29.00;92.90;;;;;;5032917;28;21038;-78
2023/06/20 11:43:29;;;;;;;11.07;10.03;;;29.30;92.30;;;;;;5040443;28;20553;-78
2023/06/20 11:45:59;;;;;;;9.47;8.63;;;29.40;92.00;;;;;;5031296;28;20992;-80
2023/06/20 11:48:27;;;;;;;10.03;9.10;;;29.40;91.80;;;;;;5045967;28;20442;-76
2023/06/20 11:50:58;;;;;;;10.17;9.07;;;29.70;91.40;;;;;;5042978;28;20445;-80
2023/06/20 11:53:29;;;;;;;8.87;8.07;;;29.90;91.10;;;;;;5054749;28;20463;-78
2023/06/20 11:55:57;;;;;;;9.30;8.60;;;30.00;91.00;;;;;;5040897;28;20443;-78
2023/06/20 11:58:26;;;;;;;10.30;9.30;;;30.20;91.00;;;;;;5053992;28;20473;-78
2023/06/20 12:01:09;;;;;;;12.40;9.70;;;30.20;90.80;;;;;;5052997;28;20446;-80
2023/06/20 12:03:37;;;;;;;10.50;9.60;;;29.90;91.00;;;;;;5034652;28;20459;-80
2023/06/20 12:06:22;;;;;;;9.77;8.37;;;30.00;90.80;;;;;;5030421;28;20478;-79
2023/06/20 12:08:55;;;;;;;8.07;7.37;;;29.70;90.50;;;;;;5034932;28;20445;-82
2023/06/20 12:11:23;;;;;;;8.60;7.80;;;29.50;90.70;;;;;;5036114;28;20518;-80
2023/06/20 12:13:52;;;;;;;9.33;8.53;;;29.40;90.70;;;;;;5038312;28;20476;-79
2023/06/20 12:16:20;;;;;;;10.00;9.17;;;29.40;90.80;;;;;;5042676;28;20444;-78
2023/06/20 12:18:48;;;;;;;9.87;8.83;;;29.40;91.00;;;;;;5039753;28;20491;-78
2023/06/20 12:21:14;;;;;;;10.40;9.50;;;29.30;91.00;;;;;;5045027;28;20474;-80
2023/06/20 12:23:42;;;;;;;9.17;8.37;;;29.40;91.00;;;;;;5047429;28;20549;-79
2023/06/20 12:26:09;;;;;;;9.10;8.20;;;29.50;90.20;;;;;;5042742;28;20462;-78
2023/06/20 12:28:36;;;;;;;9.70;8.80;;;29.30;90.40;;;;;;5040243;28;20474;-81
2023/06/20 12:31:03;;;;;;;10.60;9.70;;;29.10;90.60;;;;;;5039963;28;20443;-79
2023/06/20 12:33:32;;;;;;;10.03;9.20;;;29.20;90.80;;;;;;5044930;28;20481;-80
2023/06/20 12:35:59;;;;;;;10.20;9.27;;;29.00;90.70;;;;;;5037856;28;20440;-76
2023/06/20 12:38:26;;;;;;;10.80;9.90;;;28.80;90.90;;;;;;5038567;28;20440;-80